Time;durP1;ratioP1;P1;durP2;ratioP2;P2;SDS_P1;SDS_P2;PMS_P1;PMS_P2;Temp;Humidity;BMP_temperature;BMP_pressure;BME280_temperature;BME280_humidity;BME280_pressure;Samples;Min_cycle;Max_cycle;Signal;HPM_P1;HPM_P2
2023/09/01 00:00:47;;;;;;;2.47;1.80;;;;;;;;;;4995458;28;20029;-67
2023/09/01 00:03:13;;;;;;;5.63;2.63;;;;;;;;;;4997192;28;20034;-67
2023/09/01 00:05:39;;;;;;;4.28;2.10;;;;;;;;;;5001397;28;20038;-67
2023/09/01 00:08:05;;;;;;;3.45;1.92;;;;;;;;;;4999717;28;20042;-67
2023/09/01 00:10:30;;;;;;;2.83;2.00;;;;;;;;;;4994995;28;20037;-67
2023/09/01 00:12:56;;;;;;;2.67;1.80;;;;;;;;;;4995949;28;20041;-67
2023/09/01 00:15:22;;;;;;;2.72;1.80;;;;;;;;;;4980635;28;20026;-67
2023/09/01 00:17:47;;;;;;;2.97;1.98;;;;;;;;;;5000971;28;20073;-67
2023/09/01 00:20:13;;;;;;;4.85;2.30;;;;;;;;;;4990698;28;20069;-67
2023/09/01 00:22:38;;;;;;;4.47;2.10;;;;;;;;;;5000323;28;20045;-67
2023/09/01 00:25:04;;;;;;;3.85;2.40;;;;;;;;;;5000850;28;20092;-67
2023/09/01 00:27:30;;;;;;;5.25;2.13;;;;;;;;;;4995827;28;20096;-67
2023/09/01 00:29:55;;;;;;;4.18;2.53;;;;;;;;;;4994554;28;20046;-67
2023/09/01 00:32:20;;;;;;;4.28;2.35;;;;;;;;;;4999567;28;20063;-67
2023/09/01 00:34:46;;;;;;;3.08;2.40;;;;;;;;;;5001074;28;20044;-67
2023/09/01 00:37:11;;;;;;;5.95;2.88;;;;;;;;;;4995496;28;20080;-67
2023/09/01 00:39:36;;;;;;;5.38;3.08;;;;;;;;;;4994740;28;20042;-67
2023/09/01 00:42:03;;;;;;;6.15;3.20;;;;;;;;;;4998975;28;20038;-67
2023/09/01 00:44:28;;;;;;;7.50;2.70;;;;;;;;;;5000815;28;20092;-67
2023/09/01 00:46:53;;;;;;;8.38;3.15;;;;;;;;;;4984244;28;20042;-67
2023/09/01 00:49:19;;;;;;;5.22;2.90;;;;;;;;;;4996532;28;20038;-67
2023/09/01 00:51:48;;;;;;;9.48;3.40;;;;;;;;;;5003210;28;20115;-67
2023/09/01 00:54:14;;;;;;;6.25;3.53;;;;;;;;;;4983406;28;20054;-67
2023/09/01 00:56:41;;;;;;;6.43;3.50;;;;;;;;;;4983565;28;20050;-67
2023/09/01 00:59:07;;;;;;;6.47;3.25;;;;;;;;;;5002383;28;20041;-67
2023/09/01 01:01:34;;;;;;;7.40;3.33;;;;;;;;;;5003966;28;20065;-67
2023/09/01 01:04:00;;;;;;;7.45;3.70;;;;;;;;;;4994751;28;20160;-67
2023/09/01 01:06:43;;;;;;;5.88;3.28;;;;;;;;;;4994117;28;20037;-67
2023/09/01 01:09:15;;;;;;;8.70;3.47;;;;;;;;;;4996576;28;20093;-67
2023/09/01 01:12:00;;;;;;;8.27;3.55;;;;;;;;;;4991033;28;20519;-67
2023/09/01 01:14:47;;;;;;;9.18;3.78;;;;;;;;;;4996514;28;20046;-67
2023/09/01 01:17:18;;;;;;;6.38;3.78;;;;;;;;;;5000266;28;20045;-67
2023/09/01 01:20:21;;;;;;;7.50;3.35;;;;;;;;;;4996952;28;20645;-67
2023/09/01 01:23:05;;;;;;;11.75;3.65;;;;;;;;;;5002486;28;20274;-67
2023/09/01 01:25:31;;;;;;;8.63;3.67;;;;;;;;;;4993172;28;20519;-67
2023/09/01 01:28:06;;;;;;;8.02;3.85;;;;;;;;;;4993775;28;20080;-67
2023/09/01 01:30:31;;;;;;;12.38;4.20;;;;;;;;;;4999772;28;20086;-67
2023/09/01 01:32:56;;;;;;;7.90;4.43;;;;;;;;;;4995531;28;20038;-67
2023/09/01 01:35:28;;;;;;;8.95;3.97;;;;;;;;;;4993567;28;20415;-67
2023/09/01 01:38:05;;;;;;;9.73;4.32;;;;;;;;;;4995380;28;20058;-66
2023/09/01 01:40:32;;;;;;;10.40;4.35;;;;;;;;;;4992871;28;20451;-67
2023/09/01 01:43:01;;;;;;;9.80;4.82;;;;;;;;;;4994545;28;20076;-67
2023/09/01 01:45:29;;;;;;;11.88;4.43;;;;;;;;;;5000077;28;20018;-67
2023/09/01 01:47:54;;;;;;;11.93;4.72;;;;;;;;;;4998177;28;20034;-67
2023/09/01 01:50:20;;;;;;;12.13;4.63;;;;;;;;;;4993249;28;20092;-67
2023/09/01 01:52:45;;;;;;;12.65;5.43;;;;;;;;;;4991544;28;20416;-67
2023/09/01 01:55:11;;;;;;;10.52;5.32;;;;;;;;;;4998963;28;20030;-67
2023/09/01 01:57:39;;;;;;;11.48;5.32;;;;;;;;;;4999851;28;20109;-67
2023/09/01 02:00:11;;;;;;;13.18;5.47;;;;;;;;;;4994030;28;20037;-67
2023/09/01 02:02:37;;;;;;;12.73;5.20;;;;;;;;;;4990828;28;20096;-67
2023/09/01 02:05:06;;;;;;;12.88;5.50;;;;;;;;;;4998887;28;20037;-67
2023/09/01 02:07:31;;;;;;;13.30;5.57;;;;;;;;;;4998895;28;20034;-67
2023/09/01 02:09:57;;;;;;;14.32;5.13;;;;;;;;;;4993015;28;20558;-67
2023/09/01 02:12:22;;;;;;;15.05;5.10;;;;;;;;;;4993598;28;20046;-67
2023/09/01 02:14:47;;;;;;;14.02;5.20;;;;;;;;;;4996628;28;20068;-67
2023/09/01 02:17:13;;;;;;;11.18;4.97;;;;;;;;;;4999507;28;20046;-67
2023/09/01 02:19:38;;;;;;;15.88;4.97;;;;;;;;;;4996419;28;20116;-66
2023/09/01 02:22:05;;;;;;;10.95;5.20;;;;;;;;;;4986702;28;20057;-67
2023/09/01 02:24:31;;;;;;;11.27;5.07;;;;;;;;;;4988178;28;20033;-68
2023/09/01 02:26:56;;;;;;;12.05;5.20;;;;;;;;;;4997195;28;20034;-67
2023/09/01 02:29:22;;;;;;;12.70;5.45;;;;;;;;;;4990816;28;20535;-68
2023/09/01 02:31:48;;;;;;;11.80;5.38;;;;;;;;;;4971677;28;20038;-68
2023/09/01 02:34:14;;;;;;;11.93;4.80;;;;;;;;;;4997506;28;20018;-68
2023/09/01 02:36:39;;;;;;;14.30;4.65;;;;;;;;;;4991524;28;20018;-68
2023/09/01 02:39:04;;;;;;;14.25;5.20;;;;;;;;;;4992361;28;20042;-67
2023/09/01 02:41:30;;;;;;;10.27;5.03;;;;;;;;;;4995776;28;20046;-68
2023/09/01 02:43:57;;;;;;;10.07;5.18;;;;;;;;;;4998622;28;20038;-68
2023/09/01 02:46:23;;;;;;;13.10;5.60;;;;;;;;;;4995895;28;20046;-68
2023/09/01 02:48:49;;;;;;;12.45;5.63;;;;;;;;;;4993256;28;20045;-68
2023/09/01 02:51:15;;;;;;;12.32;4.78;;;;;;;;;;4996247;28;20026;-67
2023/09/01 02:53:41;;;;;;;10.57;5.25;;;;;;;;;;5001341;28;20049;-68
2023/09/01 02:56:06;;;;;;;10.43;5.13;;;;;;;;;;4996077;28;20034;-68
2023/09/01 02:58:32;;;;;;;11.43;5.32;;;;;;;;;;4998680;28;20536;-68
2023/09/01 03:00:58;;;;;;;10.70;4.90;;;;;;;;;;5002436;28;20026;-67
2023/09/01 03:03:23;;;;;;;11.85;5.75;;;;;;;;;;4994704;28;20037;-67
2023/09/01 03:05:50;;;;;;;15.40;5.50;;;;;;;;;;4997484;28;20037;-68
2023/09/01 03:08:17;;;;;;;12.32;5.60;;;;;;;;;;5002190;28;20034;-68
2023/09/01 03:10:43;;;;;;;14.60;6.03;;;;;;;;;;5002121;28;20034;-67
2023/09/01 03:13:08;;;;;;;12.85;5.85;;;;;;;;;;4995788;28;20037;-67
2023/09/01 03:15:34;;;;;;;12.35;5.97;;;;;;;;;;4996946;28;20025;-68
2023/09/01 03:17:59;;;;;;;13.85;6.00;;;;;;;;;;4995942;28;20101;-68
2023/09/01 03:20:25;;;;;;;13.52;5.65;;;;;;;;;;4995725;28;20523;-68
2023/09/01 03:22:50;;;;;;;12.60;5.30;;;;;;;;;;4994022;28;20470;-67
2023/09/01 03:25:17;;;;;;;13.00;5.60;;;;;;;;;;4995432;28;20041;-68
2023/09/01 03:27:43;;;;;;;12.88;5.50;;;;;;;;;;5002173;28;20030;-68
2023/09/01 03:30:10;;;;;;;12.07;5.82;;;;;;;;;;4991109;28;20193;-67
2023/09/01 03:32:36;;;;;;;13.63;6.15;;;;;;;;;;4999587;28;20042;-68
2023/09/01 03:35:02;;;;;;;14.23;5.70;;;;;;;;;;5002299;28;20034;-68
2023/09/01 03:37:28;;;;;;;12.85;5.78;;;;;;;;;;4998480;28;20561;-68
2023/09/01 03:39:53;;;;;;;19.38;5.78;;;;;;;;;;4996025;28;20050;-67
2023/09/01 03:42:18;;;;;;;13.07;5.28;;;;;;;;;;4999021;28;20077;-68
2023/09/01 03:44:44;;;;;;;15.30;5.47;;;;;;;;;;5003253;28;20038;-68
2023/09/01 03:47:10;;;;;;;10.63;5.15;;;;;;;;;;5004731;28;20617;-67
2023/09/01 03:49:36;;;;;;;11.68;5.28;;;;;;;;;;5003131;28;20124;-68
2023/09/01 03:52:02;;;;;;;13.27;5.25;;;;;;;;;;4997805;28;20041;-67
2023/09/01 03:54:27;;;;;;;13.52;5.70;;;;;;;;;;4993436;28;20014;-68
2023/09/01 03:56:53;;;;;;;12.20;5.70;;;;;;;;;;4997462;28;20065;-68
2023/09/01 03:59:19;;;;;;;15.27;5.80;;;;;;;;;;5001496;28;20659;-68
2023/09/01 04:01:45;;;;;;;15.40;5.80;;;;;;;;;;4994390;28;20027;-68
2023/09/01 04:04:11;;;;;;;13.95;5.30;;;;;;;;;;4998189;28;20036;-67
2023/09/01 04:06:37;;;;;;;13.23;5.32;;;;;;;;;;4995651;28;20030;-68
2023/09/01 04:09:03;;;;;;;14.57;6.18;;;;;;;;;;4996385;28;20034;-68
2023/09/01 04:11:29;;;;;;;13.98;5.25;;;;;;;;;;5001181;28;20694;-68
2023/09/01 04:13:55;;;;;;;15.55;5.65;;;;;;;;;;5000378;28;20065;-68
2023/09/01 04:16:21;;;;;;;13.68;5.45;;;;;;;;;;4994914;28;20546;-68
2023/09/01 04:18:47;;;;;;;10.85;5.22;;;;;;;;;;4995291;28;20030;-68
2023/09/01 04:21:13;;;;;;;14.25;5.43;;;;;;;;;;5001137;28;20034;-67
2023/09/01 04:23:40;;;;;;;12.75;5.35;;;;;;;;;;5000990;28;20042;-68
2023/09/01 04:26:06;;;;;;;13.13;5.47;;;;;;;;;;5002852;28;20042;-67
2023/09/01 04:28:31;;;;;;;14.60;5.88;;;;;;;;;;4999788;28;20033;-67
2023/09/01 04:30:59;;;;;;;12.52;5.82;;;;;;;;;;4996528;28;20480;-67
2023/09/01 04:33:28;;;;;;;15.23;6.03;;;;;;;;;;4993679;28;20409;-67
2023/09/01 04:36:00;;;;;;;11.15;5.32;;;;;;;;;;4997958;28;20027;-67
2023/09/01 04:38:26;;;;;;;13.70;5.88;;;;;;;;;;5000587;28;20104;-67
2023/09/01 04:40:59;;;;;;;12.38;5.47;;;;;;;;;;4998799;28;20049;-68
2023/09/01 04:43:26;;;;;;;10.85;5.68;;;;;;;;;;4994440;28;20032;-67
2023/09/01 04:45:53;;;;;;;12.18;5.70;;;;;;;;;;4994940;28;20427;-68
2023/09/01 04:48:18;;;;;;;11.68;5.00;;;;;;;;;;5000538;28;20049;-68
2023/09/01 04:50:44;;;;;;;11.18;5.05;;;;;;;;;;5000890;28;20042;-68
2023/09/01 04:53:10;;;;;;;11.63;5.18;;;;;;;;;;4975476;28;20042;-68
2023/09/01 04:55:36;;;;;;;12.30;5.53;;;;;;;;;;4986210;28;20089;-68
2023/09/01 04:58:01;;;;;;;11.50;5.60;;;;;;;;;;5000118;28;20026;-67
2023/09/01 05:00:27;;;;;;;16.13;5.57;;;;;;;;;;5000975;28;20065;-68
2023/09/01 05:02:52;;;;;;;14.57;5.80;;;;;;;;;;4988314;28;20057;-67
2023/09/01 05:05:17;;;;;;;10.10;4.85;;;;;;;;;;4987836;28;20035;-67
2023/09/01 05:07:43;;;;;;;13.70;5.13;;;;;;;;;;5004063;28;20038;-67
2023/09/01 05:10:09;;;;;;;15.40;5.22;;;;;;;;;;5003216;28;20023;-67
2023/09/01 05:12:35;;;;;;;10.75;4.40;;;;;;;;;;5010227;28;20052;-68
2023/09/01 05:15:00;;;;;;;14.45;5.22;;;;;;;;;;4997920;28;20695;-68
2023/09/01 05:17:26;;;;;;;12.25;5.05;;;;;;;;;;4994246;28;20042;-67
2023/09/01 05:19:51;;;;;;;9.18;4.70;;;;;;;;;;4998535;28;20967;-68
2023/09/01 05:22:16;;;;;;;11.57;5.10;;;;;;;;;;5000219;28;20060;-68
2023/09/01 05:24:42;;;;;;;11.35;4.40;;;;;;;;;;4995652;28;20026;-68
2023/09/01 05:27:07;;;;;;;9.68;4.57;;;;;;;;;;4993540;28;20045;-68
2023/09/01 05:29:32;;;;;;;12.18;4.80;;;;;;;;;;4996704;28;20053;-67
2023/09/01 05:31:58;;;;;;;14.45;5.05;;;;;;;;;;4999739;28;20070;-68
2023/09/01 05:34:23;;;;;;;7.70;4.30;;;;;;;;;;4997175;28;20030;-68
2023/09/01 05:36:48;;;;;;;9.15;4.05;;;;;;;;;;4993839;28;20026;-68
2023/09/01 05:39:14;;;;;;;11.68;4.47;;;;;;;;;;4995537;28;20058;-68
2023/09/01 05:41:39;;;;;;;8.75;4.70;;;;;;;;;;4999550;28;20034;-68
2023/09/01 05:44:05;;;;;;;9.60;4.60;;;;;;;;;;4997623;28;20068;-67
2023/09/01 05:46:30;;;;;;;9.02;4.13;;;;;;;;;;4991942;28;20042;-67
2023/09/01 05:48:55;;;;;;;10.02;4.63;;;;;;;;;;4993280;28;20022;-67
2023/09/01 05:51:21;;;;;;;11.02;4.15;;;;;;;;;;4999976;28;20033;-68
2023/09/01 05:53:46;;;;;;;10.23;4.95;;;;;;;;;;4987056;28;20125;-67
2023/09/01 05:56:12;;;;;;;8.43;4.50;;;;;;;;;;4999770;28;20034;-68
2023/09/01 05:58:37;;;;;;;9.88;4.80;;;;;;;;;;4997893;28;20038;-67
2023/09/01 06:01:03;;;;;;;6.65;3.75;;;;;;;;;;4992835;28;20096;-67
2023/09/01 06:03:29;;;;;;;7.78;3.38;;;;;;;;;;4993208;28;20500;-68
2023/09/01 06:05:54;;;;;;;8.13;3.83;;;;;;;;;;4993828;28;20040;-68
2023/09/01 06:08:19;;;;;;;6.30;3.53;;;;;;;;;;4999040;28;20097;-67
2023/09/01 06:10:45;;;;;;;8.20;3.75;;;;;;;;;;4998919;28;20088;-67
2023/09/01 06:13:10;;;;;;;8.00;3.80;;;;;;;;;;4992732;28;20626;-67
2023/09/01 06:15:35;;;;;;;7.20;3.88;;;;;;;;;;4992950;28;20018;-67
2023/09/01 06:18:01;;;;;;;9.35;3.53;;;;;;;;;;4999365;28;20042;-67
2023/09/01 06:20:28;;;;;;;6.60;3.00;;;;;;;;;;4999379;28;20061;-67
2023/09/01 06:22:54;;;;;;;3.72;2.60;;;;;;;;;;4993116;28;20038;-67
2023/09/01 06:25:20;;;;;;;4.50;2.30;;;;;;;;;;4992167;28;20460;-67
2023/09/01 06:27:46;;;;;;;4.68;2.35;;;;;;;;;;4998900;28;20718;-68
2023/09/01 06:30:12;;;;;;;3.20;2.13;;;;;;;;;;4968649;28;20046;-67
2023/09/01 06:32:37;;;;;;;2.75;2.28;;;;;;;;;;4973109;28;20105;-67
2023/09/01 06:35:03;;;;;;;4.32;1.85;;;;;;;;;;4974518;28;20162;-67
2023/09/01 06:37:29;;;;;;;3.00;2.03;;;;;;;;;;4977571;28;20031;-67
2023/09/01 06:39:54;;;;;;;4.53;1.60;;;;;;;;;;4972647;28;20051;-67
2023/09/01 06:42:20;;;;;;;2.15;1.40;;;;;;;;;;4961469;28;20440;-67
2023/09/01 06:44:45;;;;;;;1.92;1.45;;;;;;;;;;4970642;28;20033;-68
2023/09/01 06:47:10;;;;;;;3.42;1.33;;;;;;;;;;4976988;28;20041;-67
2023/09/01 06:49:36;;;;;;;2.97;1.45;;;;;;;;;;4973081;28;20031;-67
2023/09/01 06:52:02;;;;;;;3.78;1.33;;;;;;;;;;4973653;28;20026;-67
2023/09/01 06:54:27;;;;;;;1.75;1.20;;;;;;;;;;4990388;28;20523;-68
2023/09/01 06:56:53;;;;;;;4.72;1.48;;;;;;;;;;4987520;28;20038;-67
2023/09/01 06:59:18;;;;;;;2.90;1.38;;;;;;;;;;4973728;28;20038;-67
2023/09/01 07:01:43;;;;;;;2.40;1.27;;;;;;;;;;4972263;28;20035;-68
2023/09/01 07:04:09;;;;;;;2.78;1.33;;;;;;;;;;4976806;28;20029;-68
2023/09/01 07:06:34;;;;;;;2.67;1.50;;;;;;;;;;4970187;28;20034;-68
2023/09/01 07:09:00;;;;;;;3.83;1.42;;;;;;;;;;4988628;28;20535;-68
2023/09/01 07:11:25;;;;;;;3.45;1.70;;;;;;;;;;4981715;28;20165;-68
2023/09/01 07:13:50;;;;;;;2.78;1.58;;;;;;;;;;4985402;28;20034;-68
2023/09/01 07:16:16;;;;;;;3.13;1.50;;;;;;;;;;5001017;28;20029;-67
2023/09/01 07:18:41;;;;;;;2.95;1.90;;;;;;;;;;4974168;28;20404;-68
2023/09/01 07:21:06;;;;;;;2.85;1.50;;;;;;;;;;4970364;28;20027;-67
2023/09/01 07:23:32;;;;;;;3.38;1.83;;;;;;;;;;4976202;28;20471;-67
2023/09/01 07:25:59;;;;;;;3.92;2.05;;;;;;;;;;4998194;28;20034;-68
2023/09/01 07:28:24;;;;;;;5.32;2.13;;;;;;;;;;4997082;28;20150;-68
2023/09/01 07:30:50;;;;;;;3.22;2.15;;;;;;;;;;4988913;28;20070;-67
2023/09/01 07:33:16;;;;;;;3.55;2.33;;;;;;;;;;4992778;28;20038;-68
2023/09/01 07:35:49;;;;;;;4.93;2.42;;;;;;;;;;4992066;28;20037;-68
2023/09/01 07:38:15;;;;;;;6.13;2.30;;;;;;;;;;5001229;28;20054;-68
2023/09/01 07:40:41;;;;;;;3.42;2.28;;;;;;;;;;4998002;28;20116;-68
2023/09/01 07:43:07;;;;;;;3.88;2.30;;;;;;;;;;4995550;28;20037;-68
2023/09/01 07:45:33;;;;;;;3.92;2.20;;;;;;;;;;4995808;28;20031;-68
2023/09/01 07:47:58;;;;;;;3.33;2.03;;;;;;;;;;4987747;28;20520;-68
2023/09/01 07:50:24;;;;;;;4.47;2.30;;;;;;;;;;4990716;28;20126;-68
2023/09/01 07:52:50;;;;;;;4.90;3.00;;;;;;;;;;5001982;28;20515;-68
2023/09/01 07:55:16;;;;;;;4.68;2.60;;;;;;;;;;4999419;28;20515;-68
2023/09/01 07:57:41;;;;;;;7.03;2.45;;;;;;;;;;4999307;28;20041;-68
2023/09/01 08:00:07;;;;;;;5.70;2.70;;;;;;;;;;5007039;28;20033;-68
2023/09/01 08:02:34;;;;;;;5.00;2.60;;;;;;;;;;4985960;28;20042;-68
2023/09/01 08:05:00;;;;;;;3.92;2.65;;;;;;;;;;4982711;28;20129;-68
2023/09/01 08:07:25;;;;;;;4.88;2.78;;;;;;;;;;4979650;28;20088;-67
2023/09/01 08:09:51;;;;;;;4.53;2.90;;;;;;;;;;4983363;28;20517;-68
2023/09/01 08:12:16;;;;;;;5.10;2.50;;;;;;;;;;4993456;28;20031;-68
2023/09/01 08:14:42;;;;;;;4.85;2.70;;;;;;;;;;4966934;28;20519;-68
2023/09/01 08:17:07;;;;;;;5.53;2.50;;;;;;;;;;4985746;28;20066;-67
2023/09/01 08:19:32;;;;;;;3.95;2.58;;;;;;;;;;4979418;28;20093;-68
2023/09/01 08:21:58;;;;;;;7.40;2.70;;;;;;;;;;4987956;28;20022;-68
2023/09/01 08:24:23;;;;;;;3.53;2.45;;;;;;;;;;4999034;28;20488;-68
2023/09/01 08:26:48;;;;;;;3.50;2.30;;;;;;;;;;5001103;28;20037;-68
2023/09/01 08:29:14;;;;;;;8.13;2.60;;;;;;;;;;4987803;28;20030;-68
2023/09/01 08:31:41;;;;;;;4.90;2.70;;;;;;;;;;4976698;28;20065;-67
2023/09/01 08:34:10;;;;;;;4.30;2.17;;;;;;;;;;4989437;28;20026;-68
2023/09/01 08:36:36;;;;;;;2.92;2.20;;;;;;;;;;4994887;28;20026;-68
2023/09/01 08:39:03;;;;;;;3.55;1.70;;;;;;;;;;4991519;28;20175;-68
2023/09/01 08:41:28;;;;;;;2.53;1.75;;;;;;;;;;4967621;28;20121;-68
2023/09/01 08:43:57;;;;;;;2.17;1.63;;;;;;;;;;4969265;28;20038;-68
2023/09/01 08:46:24;;;;;;;2.85;1.38;;;;;;;;;;4971568;28;20035;-68
2023/09/01 08:48:49;;;;;;;2.33;1.50;;;;;;;;;;4978683;28;20027;-68
2023/09/01 08:51:15;;;;;;;3.10;1.58;;;;;;;;;;4966864;28;20089;-67
2023/09/01 08:53:42;;;;;;;2.05;1.40;;;;;;;;;;4981768;28;20377;-68
2023/09/01 08:56:07;;;;;;;2.45;1.38;;;;;;;;;;4980984;28;20597;-68
2023/09/01 08:58:33;;;;;;;1.92;1.33;;;;;;;;;;4995613;28;20038;-68
2023/09/01 09:00:58;;;;;;;3.25;1.48;;;;;;;;;;4979759;28;20041;-67
2023/09/01 09:03:24;;;;;;;1.60;1.17;;;;;;;;;;4969954;28;20022;-67
2023/09/01 09:05:49;;;;;;;1.75;1.30;;;;;;;;;;4973959;28;20096;-68
2023/09/01 09:08:17;;;;;;;1.70;1.52;;;;;;;;;;4984707;28;20034;-68
2023/09/01 09:10:46;;;;;;;1.33;1.20;;;;;;;;;;4975965;28;20042;-68
2023/09/01 09:13:26;;;;;;;2.35;1.67;;;;;;;;;;5000989;28;20030;-67
2023/09/01 09:16:15;;;;;;;2.40;1.52;;;;;;;;;;4974604;28;20010;-67
2023/09/01 09:18:42;;;;;;;2.35;1.65;;;;;;;;;;4980845;28;20038;-67
2023/09/01 09:21:28;;;;;;;2.20;1.40;;;;;;;;;;5002619;28;20062;-67
2023/09/01 09:23:55;;;;;;;2.55;1.50;;;;;;;;;;5007767;28;20105;-67
2023/09/01 09:26:27;;;;;;;2.40;1.77;;;;;;;;;;4997333;28;20038;-67
2023/09/01 09:28:53;;;;;;;2.10;1.73;;;;;;;;;;4988567;28;20045;-67
2023/09/01 09:31:29;;;;;;;2.67;1.80;;;;;;;;;;4974487;28;20031;-67
2023/09/01 09:33:55;;;;;;;3.28;2.00;;;;;;;;;;4981229;28;20057;-68
2023/09/01 09:36:36;;;;;;;3.17;1.60;;;;;;;;;;4985227;28;20125;-67
2023/09/01 09:39:03;;;;;;;2.83;2.10;;;;;;;;;;4976352;28;20062;-67
2023/09/01 09:41:45;;;;;;;3.65;2.40;;;;;;;;;;4977245;28;20034;-67
2023/09/01 09:44:10;;;;;;;4.28;2.30;;;;;;;;;;5009582;28;20096;-68
2023/09/01 09:46:41;;;;;;;3.50;2.30;;;;;;;;;;4998944;28;20054;-68
2023/09/01 09:49:09;;;;;;;3.95;2.30;;;;;;;;;;4999174;28;20030;-68
2023/09/01 09:51:35;;;;;;;4.50;2.60;;;;;;;;;;4981190;28;20047;-68
2023/09/01 09:54:03;;;;;;;4.22;2.40;;;;;;;;;;4992673;28;20038;-68
2023/09/01 09:56:35;;;;;;;3.47;2.35;;;;;;;;;;4997456;28;20038;-67
2023/09/01 09:59:06;;;;;;;2.97;2.22;;;;;;;;;;4987895;28;20042;-69
2023/09/01 10:01:37;;;;;;;3.58;2.60;;;;;;;;;;4994151;28;20041;-68
2023/09/01 10:04:07;;;;;;;2.85;2.20;;;;;;;;;;4996503;28;20534;-68
2023/09/01 10:06:34;;;;;;;3.58;2.22;;;;;;;;;;4992524;28;20042;-68
2023/09/01 10:09:04;;;;;;;2.72;2.15;;;;;;;;;;4985736;28;20042;-68
2023/09/01 10:11:29;;;;;;;3.55;2.30;;;;;;;;;;4978381;28;20043;-68
2023/09/01 10:13:56;;;;;;;3.33;1.95;;;;;;;;;;4974903;28;20046;-67
2023/09/01 10:16:22;;;;;;;3.13;2.13;;;;;;;;;;4997533;28;20026;-68
2023/09/01 10:18:48;;;;;;;3.63;2.10;;;;;;;;;;4974550;28;20165;-68
2023/09/01 10:21:15;;;;;;;2.70;2.05;;;;;;;;;;4997002;28;20046;-68
2023/09/01 10:23:42;;;;;;;3.38;2.05;;;;;;;;;;4999160;28;20091;-68
2023/09/01 10:26:15;;;;;;;3.80;2.28;;;;;;;;;;4992837;28;20125;-69
2023/09/01 10:28:58;;;;;;;3.25;2.03;;;;;;;;;;4990902;28;20081;-68
2023/09/01 10:31:24;;;;;;;2.45;1.83;;;;;;;;;;4990725;28;20034;-67
2023/09/01 10:34:12;;;;;;;1.98;1.55;;;;;;;;;;4978360;28;20030;-68
2023/09/01 10:36:58;;;;;;;1.90;1.65;;;;;;;;;;4991686;28;20046;-68
2023/09/01 10:39:29;;;;;;;2.47;1.80;;;;;;;;;;4993459;28;20081;-68
2023/09/01 10:41:59;;;;;;;2.78;1.90;;;;;;;;;;4998388;28;20042;-68
2023/09/01 10:44:47;;;;;;;2.60;1.73;;;;;;;;;;5001353;28;20042;-68
2023/09/01 10:47:30;;;;;;;4.00;2.05;;;;;;;;;;4993514;28;20102;-68
2023/09/01 10:49:58;;;;;;;2.90;2.10;;;;;;;;;;4978331;28;20046;-68
2023/09/01 10:52:23;;;;;;;2.55;2.20;;;;;;;;;;4969606;28;20031;-68
2023/09/01 10:55:07;;;;;;;4.75;2.28;;;;;;;;;;4993459;28;20406;-68
2023/09/01 10:57:43;;;;;;;3.45;2.22;;;;;;;;;;4989739;28;20057;-67
2023/09/01 11:00:29;;;;;;;3.55;2.42;;;;;;;;;;4993667;28;20108;-67
2023/09/01 11:03:28;;;;;;;4.47;2.70;;;;;;;;;;4980359;28;20045;-68
2023/09/01 11:05:58;;;;;;;3.47;2.50;;;;;;;;;;4983524;28;20042;-68
2023/09/01 11:08:25;;;;;;;2.70;2.28;;;;;;;;;;4971780;28;20063;-68
2023/09/01 11:10:57;;;;;;;3.63;2.50;;;;;;;;;;4966945;28;20485;-68
2023/09/01 11:13:25;;;;;;;3.28;2.28;;;;;;;;;;4975826;28;20038;-67
2023/09/01 11:15:51;;;;;;;2.97;2.10;;;;;;;;;;4975713;28;20034;-67
2023/09/01 11:18:24;;;;;;;3.03;2.08;;;;;;;;;;4976257;28;20706;-67
2023/09/01 11:20:55;;;;;;;5.30;2.17;;;;;;;;;;4976174;28;20108;-67
2023/09/01 11:23:24;;;;;;;3.70;2.50;;;;;;;;;;4971706;28;20041;-68
2023/09/01 11:26:00;;;;;;;3.83;3.05;;;;;;;;;;4980114;28;20037;-67
2023/09/01 11:28:27;;;;;;;3.25;2.70;;;;;;;;;;4982726;28;20910;-68
2023/09/01 11:30:54;;;;;;;4.07;2.70;;;;;;;;;;4982029;28;20038;-67
2023/09/01 11:33:23;;;;;;;5.53;2.85;;;;;;;;;;4979485;28;20038;-68
2023/09/01 11:35:49;;;;;;;3.75;2.80;;;;;;;;;;4995307;28;20031;-68
2023/09/01 11:38:21;;;;;;;3.40;2.65;;;;;;;;;;4979292;28;20945;-67
2023/09/01 11:40:51;;;;;;;3.10;2.70;;;;;;;;;;4998883;28;20038;-68
2023/09/01 11:43:17;;;;;;;3.92;3.03;;;;;;;;;;4994977;28;20045;-68
2023/09/01 11:45:47;;;;;;;3.40;3.10;;;;;;;;;;4996873;28;20459;-67
2023/09/01 11:48:13;;;;;;;3.78;2.88;;;;;;;;;;4991318;28;20589;-67
2023/09/01 11:50:44;;;;;;;3.53;2.83;;;;;;;;;;4995696;28;20073;-68
2023/09/01 11:53:09;;;;;;;4.97;2.90;;;;;;;;;;5001106;28;20030;-68
2023/09/01 11:55:37;;;;;;;3.03;2.58;;;;;;;;;;4996422;28;20034;-67
2023/09/01 11:58:03;;;;;;;5.38;2.90;;;;;;;;;;5000584;28;20815;-68
2023/09/01 12:00:31;;;;;;;4.15;2.78;;;;;;;;;;5001398;28;20030;-67
2023/09/01 12:02:57;;;;;;;4.00;2.50;;;;;;;;;;4989022;28;20045;-68
2023/09/01 12:05:36;;;;;;;3.20;2.45;;;;;;;;;;4999729;28;20042;-67
2023/09/01 12:08:02;;;;;;;2.92;2.60;;;;;;;;;;5004426;28;20045;-68
2023/09/01 12:10:29;;;;;;;3.60;2.70;;;;;;;;;;5006938;28;20026;-68
2023/09/01 12:13:23;;;;;;;3.22;2.50;;;;;;;;;;4999820;28;20025;-68
2023/09/01 12:15:58;;;;;;;2.53;2.20;;;;;;;;;;4994179;28;20039;-68
2023/09/01 12:18:38;;;;;;;3.60;2.33;;;;;;;;;;5001135;28;20053;-68
2023/09/01 12:21:05;;;;;;;2.40;2.20;;;;;;;;;;4994271;28;20030;-68
2023/09/01 12:23:36;;;;;;;3.85;2.45;;;;;;;;;;4994793;28;20142;-68
2023/09/01 12:26:02;;;;;;;3.25;2.08;;;;;;;;;;4999912;28;20081;-68
2023/09/01 12:28:30;;;;;;;2.10;1.90;;;;;;;;;;4999037;28;20062;-68
2023/09/01 12:30:56;;;;;;;2.10;1.88;;;;;;;;;;4996559;28;20079;-68
2023/09/01 12:33:22;;;;;;;3.38;1.77;;;;;;;;;;4993563;28;20298;-68
2023/09/01 12:35:49;;;;;;;2.90;1.67;;;;;;;;;;4996050;28;20058;-68
2023/09/01 12:38:14;;;;;;;3.00;2.13;;;;;;;;;;4998337;28;20182;-68
2023/09/01 12:40:39;;;;;;;2.25;1.60;;;;;;;;;;4995067;28;20124;-68
2023/09/01 12:43:05;;;;;;;2.08;1.75;;;;;;;;;;4977610;28;20136;-68
2023/09/01 12:45:31;;;;;;;1.85;1.52;;;;;;;;;;4989817;28;20035;-68
2023/09/01 12:47:56;;;;;;;4.65;1.92;;;;;;;;;;4992128;28;20092;-68
2023/09/01 12:50:22;;;;;;;3.78;1.60;;;;;;;;;;4995419;28;20046;-68
2023/09/01 12:52:47;;;;;;;2.15;1.60;;;;;;;;;;4998874;28;20114;-68
2023/09/01 12:55:12;;;;;;;2.88;1.58;;;;;;;;;;4995386;28;20033;-67
2023/09/01 12:57:38;;;;;;;2.42;1.63;;;;;;;;;;4988592;28;20030;-68
2023/09/01 13:00:04;;;;;;;2.38;1.75;;;;;;;;;;4995818;28;20434;-67
2023/09/01 13:02:29;;;;;;;1.75;1.58;;;;;;;;;;4986972;28;20053;-68
2023/09/01 13:04:55;;;;;;;3.92;1.50;;;;;;;;;;4998639;28;20051;-67
2023/09/01 13:07:21;;;;;;;2.67;1.70;;;;;;;;;;4996181;28;20040;-68
2023/09/01 13:09:46;;;;;;;1.88;1.35;;;;;;;;;;4991091;28;20033;-68
2023/09/01 13:12:12;;;;;;;2.50;1.52;;;;;;;;;;4993107;28;20042;-68
2023/09/01 13:14:37;;;;;;;3.00;1.75;;;;;;;;;;4997983;28;20407;-68
2023/09/01 13:17:03;;;;;;;3.25;1.70;;;;;;;;;;4996934;28;20081;-68
2023/09/01 13:19:28;;;;;;;2.28;1.50;;;;;;;;;;4997869;28;20065;-68
2023/09/01 13:21:53;;;;;;;1.70;1.38;;;;;;;;;;5000707;28;20031;-68
2023/09/01 13:24:19;;;;;;;1.95;1.55;;;;;;;;;;4978899;28;20042;-68
2023/09/01 13:26:44;;;;;;;2.17;1.50;;;;;;;;;;4973448;28;20046;-68
2023/09/01 13:29:09;;;;;;;1.77;1.38;;;;;;;;;;4984070;28;20073;-68
2023/09/01 13:31:35;;;;;;;5.57;1.90;;;;;;;;;;5003935;28;20476;-66
2023/09/01 13:34:00;;;;;;;1.83;1.50;;;;;;;;;;4996644;28;20045;-66
2023/09/01 13:36:27;;;;;;;2.20;1.50;;;;;;;;;;4986226;28;20026;-69
2023/09/01 13:38:52;;;;;;;1.90;1.50;;;;;;;;;;4985112;28;20050;-68
2023/09/01 13:41:19;;;;;;;2.00;1.52;;;;;;;;;;4978010;28;20100;-67
2023/09/01 13:43:44;;;;;;;2.25;1.20;;;;;;;;;;4995494;28;20084;-68
2023/09/01 13:46:17;;;;;;;1.83;1.42;;;;;;;;;;4998428;28;20037;-69
2023/09/01 13:48:42;;;;;;;3.05;1.38;;;;;;;;;;4994486;28;20034;-70
2023/09/01 13:51:07;;;;;;;2.47;1.50;;;;;;;;;;4992077;28;20042;-68
2023/09/01 13:53:33;;;;;;;2.65;1.60;;;;;;;;;;4992640;28;20034;-68
2023/09/01 13:55:58;;;;;;;3.05;1.60;;;;;;;;;;4997656;28;20050;-68
2023/09/01 13:58:23;;;;;;;2.00;1.73;;;;;;;;;;4995727;28;20038;-68
2023/09/01 14:00:49;;;;;;;2.40;1.70;;;;;;;;;;4990600;28;20949;-68
2023/09/01 14:03:15;;;;;;;2.95;1.98;;;;;;;;;;4978818;28;20510;-68
2023/09/01 14:05:40;;;;;;;1.88;1.40;;;;;;;;;;4993009;28;20046;-68
2023/09/01 14:08:05;;;;;;;2.20;1.65;;;;;;;;;;4996662;28;20056;-68
2023/09/01 14:10:31;;;;;;;2.17;1.48;;;;;;;;;;4995539;28;20037;-68
2023/09/01 14:12:56;;;;;;;3.50;1.25;;;;;;;;;;4970965;28;20066;-68
2023/09/01 14:15:22;;;;;;;3.03;1.50;;;;;;;;;;4972767;28;20054;-68
2023/09/01 14:17:47;;;;;;;1.60;1.50;;;;;;;;;;4976791;28;20038;-68
2023/09/01 14:20:12;;;;;;;3.13;1.60;;;;;;;;;;4974842;28;20056;-68
2023/09/01 14:22:38;;;;;;;2.83;1.63;;;;;;;;;;4968161;28;20046;-68
2023/09/01 14:25:03;;;;;;;1.80;1.48;;;;;;;;;;4978629;28;20700;-68
2023/09/01 14:27:29;;;;;;;2.35;1.60;;;;;;;;;;4975236;28;20030;-68
2023/09/01 14:29:54;;;;;;;1.73;1.60;;;;;;;;;;4963697;28;20595;-68
2023/09/01 14:32:19;;;;;;;2.88;1.60;;;;;;;;;;4966910;28;20055;-67
2023/09/01 14:34:45;;;;;;;1.50;1.40;;;;;;;;;;4972422;28;20049;-68
2023/09/01 14:37:10;;;;;;;2.03;1.60;;;;;;;;;;4967383;28;20034;-68
2023/09/01 14:39:35;;;;;;;1.40;1.30;;;;;;;;;;4992464;28;20062;-68